createdAt,value
2022-12-06T00:01:41.380Z,6.43
2022-12-06T00:04:11.817Z,4.73
2022-12-06T00:06:44.605Z,5.57
2022-12-06T00:09:23.791Z,5.53
2022-12-06T00:11:51.267Z,5.47
2022-12-06T00:14:18.854Z,6.77
2022-12-06T00:16:46.634Z,6.87
2022-12-06T00:19:16.162Z,6.23
2022-12-06T00:21:43.624Z,6.63
2022-12-06T00:24:15.906Z,4.67
2022-12-06T00:26:45.413Z,5.67
2022-12-06T00:29:14.681Z,6.43
2022-12-06T00:31:41.637Z,4.07
2022-12-06T00:34:08.347Z,6.87
2022-12-06T00:36:38.203Z,5.57
2022-12-06T00:39:10.958Z,4.77
2022-12-06T00:41:37.859Z,4.63
2022-12-06T00:44:04.702Z,8.27
2022-12-06T00:46:33.132Z,7.07
2022-12-06T00:49:03.393Z,4.23
2022-12-06T00:51:32.241Z,6.43
2022-12-06T00:54:00.477Z,5.63
2022-12-06T00:56:27.510Z,9.87
2022-12-06T00:58:54.646Z,8.87
2022-12-06T01:01:24.316Z,9.43
2022-12-06T01:03:53.898Z,7.23
2022-12-06T01:06:27.466Z,6.67
2022-12-06T01:08:58.854Z,10.33
2022-12-06T01:11:26.052Z,7.57
2022-12-06T01:13:53.491Z,6.63
2022-12-06T01:16:23.189Z,8.83
2022-12-06T01:18:53.801Z,8.27
2022-12-06T01:21:21.949Z,8.80
2022-12-06T01:23:49.371Z,12.87
2022-12-06T01:26:21.458Z,9.87
2022-12-06T01:28:48.338Z,7.00
2022-12-06T01:31:15.446Z,10.97
2022-12-06T01:33:43.388Z,5.83
2022-12-06T01:36:16.537Z,9.97
2022-12-06T01:38:43.150Z,11.50
2022-12-06T01:41:10.280Z,9.40
2022-12-06T01:43:39.701Z,9.30
2022-12-06T01:46:09.364Z,10.13
2022-12-06T01:48:37.678Z,6.83
2022-12-06T01:51:07.832Z,7.40
2022-12-06T01:53:35.827Z,7.67
2022-12-06T01:56:03.605Z,7.87
2022-12-06T01:58:34.392Z,4.83
2022-12-06T02:01:02.186Z,8.07
2022-12-06T02:03:32.240Z,7.97
2022-12-06T02:06:00.684Z,6.43
2022-12-06T02:08:28.092Z,8.77
2022-12-06T02:10:54.942Z,6.97
2022-12-06T02:13:23.056Z,9.03
2022-12-06T02:16:18.076Z,11.27
2022-12-06T02:19:00.669Z,8.47
2022-12-06T02:21:34.943Z,7.37
2022-12-06T02:24:33.314Z,10.00
2022-12-06T02:27:22.702Z,8.83
2022-12-06T02:30:25.190Z,11.40
2022-12-06T02:32:59.185Z,19.37
2022-12-06T02:35:37.550Z,11.27
2022-12-06T02:38:32.242Z,15.37
2022-12-06T02:41:03.842Z,12.10
2022-12-06T02:43:43.704Z,15.77
2022-12-06T02:46:13.421Z,14.27
2022-12-06T02:48:42.102Z,15.10
2022-12-06T02:51:14.040Z,12.63
2022-12-06T02:53:47.387Z,14.80
2022-12-06T02:56:17.063Z,10.83
2022-12-06T02:58:43.785Z,14.57
2022-12-06T03:01:20.779Z,12.90
2022-12-06T03:04:46.630Z,12.90
2022-12-06T03:07:46.716Z,13.13
2022-12-06T03:10:47.128Z,15.03
2022-12-06T03:13:33.212Z,12.40
2022-12-06T03:16:16.920Z,12.27
2022-12-06T03:19:14.330Z,16.77
2022-12-06T03:21:47.018Z,13.67
2022-12-06T03:24:15.938Z,9.83
2022-12-06T03:26:46.983Z,13.10
2022-12-06T03:29:17.399Z,9.93
2022-12-06T03:31:46.258Z,11.47
2022-12-06T03:34:18.787Z,12.37
2022-12-06T03:36:48.796Z,10.63
2022-12-06T03:39:24.083Z,13.93
2022-12-06T03:41:55.822Z,10.53
2022-12-06T03:44:23.458Z,15.63
2022-12-06T03:46:57.697Z,14.90
2022-12-06T03:49:41.005Z,11.30
2022-12-06T03:52:09.032Z,11.93
2022-12-06T03:54:38.401Z,18.97
2022-12-06T03:57:05.171Z,14.27
2022-12-06T03:59:31.833Z,15.03
2022-12-06T04:01:58.615Z,18.27
2022-12-06T04:04:25.432Z,13.03
2022-12-06T04:06:52.879Z,10.40
2022-12-06T04:09:38.708Z,9.77
2022-12-06T04:12:25.875Z,11.23
2022-12-06T04:14:52.721Z,13.33
2022-12-06T04:17:38.013Z,10.43
2022-12-06T04:20:05.948Z,16.60
2022-12-06T04:22:51.110Z,16.37
2022-12-06T04:25:17.854Z,9.37
2022-12-06T04:28:03.089Z,8.80
2022-12-06T04:30:48.410Z,17.10
2022-12-06T04:33:33.776Z,13.03
2022-12-06T04:36:18.543Z,10.67
2022-12-06T04:38:45.155Z,15.87
2022-12-06T04:41:32.866Z,13.63
2022-12-06T04:44:01.763Z,15.47
2022-12-06T04:46:28.561Z,16.83
2022-12-06T04:48:55.362Z,16.37
2022-12-06T04:51:23.079Z,10.97
2022-12-06T04:53:49.946Z,10.97
2022-12-06T04:56:17.105Z,14.07
2022-12-06T04:58:44.447Z,12.77
2022-12-06T05:01:11.432Z,9.10
2022-12-06T05:03:43.956Z,10.33
2022-12-06T05:06:11.478Z,11.90
2022-12-06T05:08:38.279Z,13.50
2022-12-06T05:11:05.183Z,10.63
2022-12-06T05:13:31.831Z,16.60
2022-12-06T05:16:01.306Z,12.50
2022-12-06T05:18:28.869Z,11.30
2022-12-06T05:21:08.883Z,16.93
2022-12-06T05:23:36.280Z,13.30
2022-12-06T05:26:06.827Z,11.67
2022-12-06T05:28:34.003Z,15.43
2022-12-06T05:31:01.087Z,14.03
2022-12-06T05:33:28.384Z,16.47
2022-12-06T05:35:55.384Z,17.50
2022-12-06T05:38:22.216Z,14.70
2022-12-06T05:40:49.136Z,10.77
2022-12-06T05:43:16.593Z,15.20
2022-12-06T05:45:43.654Z,13.17
2022-12-06T05:48:10.301Z,8.67
2022-12-06T05:50:37.067Z,7.00
2022-12-06T05:53:04.066Z,9.97
2022-12-06T05:55:30.823Z,15.93
2022-12-06T05:57:57.469Z,8.10
2022-12-06T06:00:24.200Z,6.43
2022-12-06T06:02:51.067Z,9.83
2022-12-06T06:05:17.886Z,7.77
2022-12-06T06:07:44.572Z,9.10
2022-12-06T06:10:11.445Z,16.87
2022-12-06T06:12:38.115Z,10.50
2022-12-06T06:15:07.316Z,7.27
2022-12-06T06:17:37.630Z,10.73
2022-12-06T06:20:05.798Z,12.83
2022-12-06T06:22:36.501Z,7.37
2022-12-06T06:25:04.192Z,8.23
2022-12-06T06:27:37.143Z,13.97
2022-12-06T06:30:08.750Z,15.10
2022-12-06T06:32:36.060Z,13.47
2022-12-06T06:35:03.569Z,16.07
2022-12-06T06:37:30.460Z,9.60
2022-12-06T06:39:57.101Z,11.03
2022-12-06T06:42:23.845Z,16.63
2022-12-06T06:44:50.536Z,8.77
2022-12-06T06:47:17.328Z,12.63
2022-12-06T06:49:43.972Z,7.43
2022-12-06T06:52:10.595Z,9.93
2022-12-06T06:54:37.733Z,10.60
2022-12-06T06:57:04.604Z,12.10
2022-12-06T06:59:31.202Z,13.83
2022-12-06T07:01:58.017Z,6.90
2022-12-06T07:04:24.719Z,16.83
2022-12-06T07:06:51.319Z,10.47
2022-12-06T07:09:17.989Z,11.33
2022-12-06T07:11:44.681Z,19.90
2022-12-06T07:14:11.370Z,18.30
2022-12-06T07:16:38.066Z,18.73
2022-12-06T07:19:09.041Z,18.33
2022-12-06T07:21:36.124Z,18.73
2022-12-06T07:24:03.827Z,31.57
2022-12-06T07:26:30.581Z,38.63
2022-12-06T07:28:57.915Z,23.93
2022-12-06T07:31:27.074Z,11.83
2022-12-06T07:33:56.211Z,10.33
2022-12-06T07:36:23.489Z,19.73
2022-12-06T07:38:52.598Z,28.00
2022-12-06T07:41:39.745Z,39.43
2022-12-06T07:44:25.143Z,29.97
2022-12-06T07:46:51.737Z,13.30
2022-12-06T07:49:19.783Z,9.27
2022-12-06T07:51:46.797Z,14.73
2022-12-06T07:54:14.273Z,11.73
2022-12-06T07:56:42.488Z,10.63
2022-12-06T07:59:09.177Z,21.23
2022-12-06T08:01:36.395Z,9.50
2022-12-06T08:04:04.966Z,11.83
2022-12-06T08:06:33.277Z,13.83
2022-12-06T08:08:59.995Z,16.33
2022-12-06T08:11:27.046Z,14.20
2022-12-06T08:13:53.649Z,12.03
2022-12-06T08:16:20.292Z,9.93
2022-12-06T08:18:47.330Z,17.17
2022-12-06T08:21:14.214Z,10.97
2022-12-06T08:23:40.821Z,17.63
2022-12-06T08:26:10.264Z,12.63
2022-12-06T08:28:38.186Z,16.07
2022-12-06T08:31:13.619Z,16.30
2022-12-06T08:33:40.799Z,10.03
2022-12-06T08:36:12.938Z,15.23
2022-12-06T08:38:40.115Z,11.10
2022-12-06T08:41:31.312Z,12.50
2022-12-06T08:44:00.320Z,10.60
2022-12-06T08:46:28.073Z,12.87
2022-12-06T08:48:54.738Z,9.60
2022-12-06T08:51:21.800Z,7.20
2022-12-06T08:53:48.357Z,8.20
2022-12-06T08:56:15.382Z,16.43
2022-12-06T08:58:41.963Z,8.13
2022-12-06T09:01:18.175Z,14.77
2022-12-06T09:03:44.850Z,11.63
2022-12-06T09:06:12.136Z,22.43
2022-12-06T09:08:38.973Z,16.50
2022-12-06T09:11:07.402Z,29.47
2022-12-06T09:13:35.782Z,22.27
2022-12-06T09:16:10.822Z,8.93
2022-12-06T09:18:37.952Z,13.83
2022-12-06T09:21:06.335Z,15.20
2022-12-06T09:23:34.853Z,9.37
2022-12-06T09:26:02.342Z,13.00
2022-12-06T09:28:29.550Z,11.47
2022-12-06T09:30:56.942Z,9.47
2022-12-06T09:33:24.581Z,11.67
2022-12-06T09:35:51.872Z,10.33
2022-12-06T09:38:21.511Z,14.23
2022-12-06T09:40:59.291Z,15.67
2022-12-06T09:43:48.102Z,13.80
2022-12-06T09:46:39.353Z,12.07
2022-12-06T09:49:45.764Z,12.43
2022-12-06T09:52:32.504Z,19.93
2022-12-06T09:55:07.952Z,16.57
2022-12-06T09:57:51.872Z,25.83
2022-12-06T10:00:23.177Z,17.00
2022-12-06T10:03:02.375Z,10.20
2022-12-06T10:05:52.223Z,10.80
2022-12-06T10:08:39.215Z,11.10
2022-12-06T10:11:17.760Z,11.17
2022-12-06T10:14:04.138Z,17.00
2022-12-06T10:16:36.628Z,10.90
2022-12-06T10:19:12.156Z,8.13
2022-12-06T10:21:45.944Z,18.33
2022-12-06T10:24:37.171Z,12.37
2022-12-06T10:27:37.301Z,19.87
2022-12-06T10:30:11.087Z,11.83
2022-12-06T10:32:54.272Z,9.87
2022-12-06T10:35:43.445Z,12.10
2022-12-06T10:38:30.922Z,21.13
2022-12-06T10:41:21.362Z,13.00
2022-12-06T10:44:18.183Z,11.37
2022-12-06T10:47:06.566Z,20.10
2022-12-06T10:49:39.375Z,13.10
2022-12-06T10:52:36.349Z,14.57
2022-12-06T10:55:18.356Z,13.07
2022-12-06T10:57:50.268Z,11.60
2022-12-06T11:00:23.551Z,9.37
2022-12-06T11:02:56.212Z,10.93
2022-12-06T11:05:34.611Z,9.83
2022-12-06T11:08:06.524Z,9.43
2022-12-06T11:10:34.828Z,13.37
2022-12-06T11:13:29.995Z,11.80
2022-12-06T11:16:08.040Z,14.20
2022-12-06T11:18:35.085Z,14.10
2022-12-06T11:21:10.553Z,13.83
2022-12-06T11:24:11.063Z,11.53
2022-12-06T11:26:53.310Z,12.17
2022-12-06T11:29:20.160Z,15.43
2022-12-06T11:31:57.630Z,9.57
2022-12-06T11:34:33.089Z,11.63
2022-12-06T11:37:02.571Z,17.80
2022-12-06T11:39:31.357Z,8.67
2022-12-06T11:42:02.429Z,8.93
2022-12-06T11:44:49.544Z,11.93
2022-12-06T11:47:21.926Z,9.50
2022-12-06T11:49:51.654Z,11.20
2022-12-06T11:52:19.901Z,11.87
2022-12-06T11:54:57.904Z,9.83
2022-12-06T11:57:38.822Z,8.03
2022-12-06T12:00:20.655Z,16.87
2022-12-06T12:02:50.216Z,19.73
2022-12-06T12:05:16.795Z,12.37
2022-12-06T12:07:47.112Z,11.40
2022-12-06T12:10:29.538Z,8.70
2022-12-06T12:13:15.241Z,8.77
2022-12-06T12:15:52.935Z,10.23
2022-12-06T12:18:25.233Z,10.07
2022-12-06T12:20:53.507Z,13.90
2022-12-06T12:23:27.272Z,7.83
2022-12-06T12:26:12.467Z,10.73
2022-12-06T12:28:40.762Z,12.40
2022-12-06T12:31:24.725Z,9.40
2022-12-06T12:34:12.772Z,17.10
2022-12-06T12:36:39.366Z,16.23
2022-12-06T12:39:41.578Z,11.27
2022-12-06T12:42:33.033Z,43.83
2022-12-06T12:45:03.305Z,19.33
2022-12-06T12:47:31.945Z,20.50
2022-12-06T12:50:13.836Z,17.13
2022-12-06T12:52:42.397Z,11.13
2022-12-06T12:55:30.382Z,12.10
2022-12-06T12:57:59.305Z,9.43
2022-12-06T13:00:35.247Z,10.27
2022-12-06T13:03:18.042Z,10.30
2022-12-06T13:05:52.847Z,13.73
2022-12-06T13:08:26.918Z,15.97
2022-12-06T13:10:59.356Z,10.57
2022-12-06T13:13:49.808Z,15.33
2022-12-06T13:16:25.512Z,19.67
2022-12-06T13:18:56.087Z,19.80
2022-12-06T13:21:27.836Z,12.33
2022-12-06T13:24:13.578Z,9.17
2022-12-06T13:26:45.747Z,15.07
2022-12-06T13:29:27.551Z,10.90
2022-12-06T13:31:58.160Z,10.07
2022-12-06T13:34:33.373Z,10.90
2022-12-06T13:37:03.259Z,11.70
2022-12-06T13:39:32.910Z,18.27
2022-12-06T13:42:20.643Z,17.30
2022-12-06T13:44:50.265Z,24.03
2022-12-06T13:47:28.956Z,12.70
2022-12-06T13:49:59.728Z,22.87
2022-12-06T13:52:48.138Z,16.00
2022-12-06T13:55:27.016Z,20.93
2022-12-06T13:57:59.533Z,13.10
2022-12-06T14:00:29.197Z,36.93
2022-12-06T14:02:57.609Z,32.87
2022-12-06T14:08:35.075Z,60.23
2022-12-06T14:11:26.068Z,42.87
2022-12-06T14:13:55.401Z,34.77
2022-12-06T14:16:46.821Z,35.57
2022-12-06T14:19:17.528Z,28.93
2022-12-06T14:21:55.884Z,22.00
2022-12-06T14:24:28.830Z,28.40
2022-12-06T14:27:02.370Z,18.33
2022-12-06T14:29:28.937Z,15.80
2022-12-06T14:31:55.542Z,14.67
2022-12-06T14:34:30.630Z,27.13
2022-12-06T14:36:58.763Z,24.50
2022-12-06T14:39:29.191Z,30.17
2022-12-06T14:42:17.486Z,25.70
2022-12-06T14:44:58.716Z,27.27
2022-12-06T14:47:28.645Z,24.73
2022-12-06T14:50:16.414Z,32.73
2022-12-06T14:52:56.725Z,24.50
2022-12-06T14:55:24.162Z,22.17
2022-12-06T14:57:56.335Z,17.17
2022-12-06T15:00:35.925Z,14.93
2022-12-06T15:03:09.019Z,13.70
2022-12-06T15:05:41.509Z,14.33
2022-12-06T15:08:26.719Z,11.90
2022-12-06T15:11:13.323Z,14.93
2022-12-06T15:13:40.368Z,16.97
2022-12-06T15:16:10.038Z,19.07
2022-12-06T15:19:03.104Z,14.23
2022-12-06T15:21:29.728Z,15.07
2022-12-06T15:23:56.623Z,17.33
2022-12-06T15:26:24.640Z,13.70
2022-12-06T15:28:51.869Z,18.20
2022-12-06T15:31:22.203Z,18.47
2022-12-06T15:33:49.195Z,20.43
2022-12-06T15:36:22.012Z,21.23
2022-12-06T15:38:49.047Z,18.97
2022-12-06T15:41:18.776Z,20.93
2022-12-06T15:43:46.472Z,15.17
2022-12-06T15:46:24.045Z,17.70
2022-12-06T15:48:51.677Z,21.03
2022-12-06T15:51:21.298Z,18.13
2022-12-06T15:53:49.270Z,19.73
2022-12-06T15:56:18.929Z,17.20
2022-12-06T15:58:47.345Z,14.40
2022-12-06T16:01:26.339Z,15.10
2022-12-06T16:03:55.676Z,27.47
2022-12-06T16:06:24.132Z,32.17
2022-12-06T16:08:50.821Z,23.63
2022-12-06T16:11:20.867Z,27.93
2022-12-06T16:13:47.549Z,27.30
2022-12-06T16:16:16.525Z,66.47
2022-12-06T16:18:43.426Z,39.13
2022-12-06T16:21:19.160Z,51.17
2022-12-06T16:24:16.482Z,88.87
2022-12-06T16:26:45.228Z,86.10
2022-12-06T16:29:19.101Z,85.30
2022-12-06T16:31:47.157Z,70.63
2022-12-06T16:34:13.932Z,48.67
2022-12-06T16:37:02.659Z,31.60
2022-12-06T16:39:31.127Z,26.77
2022-12-06T16:41:57.916Z,23.83
2022-12-06T16:44:24.680Z,26.57
2022-12-06T16:46:52.046Z,25.20
2022-12-06T16:52:05.882Z,24.97
2022-12-06T16:54:32.485Z,21.20
2022-12-06T16:56:59.134Z,29.60
2022-12-06T16:59:25.761Z,19.23
2022-12-06T17:01:54.593Z,37.23
2022-12-06T17:04:21.836Z,25.23
2022-12-06T17:06:48.876Z,28.00
2022-12-06T17:09:15.775Z,34.37
2022-12-06T17:12:01.190Z,28.93
2022-12-06T17:14:27.880Z,30.27
2022-12-06T17:16:55.472Z,25.70
2022-12-06T17:19:24.601Z,23.67
2022-12-06T17:21:52.627Z,33.53
2022-12-06T17:24:20.592Z,26.07
2022-12-06T17:26:47.803Z,24.63
2022-12-06T17:29:14.634Z,38.13
2022-12-06T17:31:42.711Z,34.87
2022-12-06T17:34:13.594Z,35.00
2022-12-06T17:36:40.709Z,27.23
2022-12-06T17:39:08.840Z,28.43
2022-12-06T17:41:54.748Z,30.63
2022-12-06T17:44:21.873Z,25.10
2022-12-06T17:46:48.739Z,31.47
2022-12-06T17:49:18.426Z,29.83
2022-12-06T17:51:45.469Z,31.67
2022-12-06T17:54:13.117Z,33.57
2022-12-06T17:56:42.021Z,36.53
2022-12-06T17:59:24.314Z,36.93
2022-12-06T18:04:38.936Z,41.07
2022-12-06T18:07:06.097Z,28.87
2022-12-06T18:09:32.729Z,38.90
2022-12-06T18:12:01.176Z,31.30
2022-12-06T18:14:28.523Z,24.53
2022-12-06T18:16:55.816Z,28.27
2022-12-06T18:19:23.236Z,34.93
2022-12-06T18:21:52.223Z,35.53
2022-12-06T18:24:21.994Z,38.80
2022-12-06T18:26:49.359Z,35.30
2022-12-06T18:29:19.972Z,32.77
2022-12-06T18:31:47.108Z,33.77
2022-12-06T18:34:14.346Z,36.77
2022-12-06T18:36:44.206Z,27.93
2022-12-06T18:39:17.032Z,29.23
2022-12-06T18:41:44.521Z,27.47
2022-12-06T18:44:12.005Z,37.97
2022-12-06T18:46:39.336Z,31.73
2022-12-06T18:49:07.188Z,35.03
2022-12-06T18:51:36.053Z,22.23
2022-12-06T18:54:05.127Z,27.47
2022-12-06T18:56:33.228Z,30.73
2022-12-06T18:59:11.640Z,20.40
2022-12-06T19:01:39.470Z,26.80
2022-12-06T19:04:08.396Z,24.10
2022-12-06T19:06:37.662Z,29.13
2022-12-06T19:09:06.997Z,29.23
2022-12-06T19:11:36.820Z,28.63
2022-12-06T19:14:04.671Z,29.83
2022-12-06T19:16:39.454Z,34.17
2022-12-06T19:19:15.553Z,30.23
2022-12-06T19:21:44.077Z,33.53
2022-12-06T19:24:17.348Z,42.90
2022-12-06T19:26:44.651Z,43.83
2022-12-06T19:29:11.837Z,28.87
2022-12-06T19:31:38.529Z,38.10
2022-12-06T19:34:05.442Z,32.07
2022-12-06T19:36:32.590Z,37.20
2022-12-06T19:39:02.265Z,30.63
2022-12-06T19:41:29.375Z,25.67
2022-12-06T19:44:14.689Z,37.63
2022-12-06T19:46:43.302Z,32.53
2022-12-06T19:49:11.706Z,31.00
2022-12-06T19:51:40.488Z,34.97
2022-12-06T19:54:08.354Z,31.37
2022-12-06T19:56:35.572Z,36.10
2022-12-06T19:59:11.253Z,44.20
2022-12-06T20:01:40.546Z,35.13
2022-12-06T20:04:07.688Z,35.83
2022-12-06T20:06:35.128Z,36.10
2022-12-06T20:09:04.335Z,29.27
2022-12-06T20:11:49.589Z,27.20
2022-12-06T20:14:18.235Z,34.60
2022-12-06T20:16:44.858Z,28.20
2022-12-06T20:19:12.962Z,33.87
2022-12-06T20:21:39.572Z,30.90
2022-12-06T20:24:18.631Z,26.03
2022-12-06T20:26:53.057Z,30.97
2022-12-06T20:29:20.632Z,36.00
2022-12-06T20:31:51.423Z,37.80
2022-12-06T20:34:19.065Z,35.53
2022-12-06T20:36:46.074Z,29.17
2022-12-06T20:39:22.540Z,32.93
2022-12-06T20:41:50.045Z,33.63
2022-12-06T20:44:17.938Z,29.00
2022-12-06T20:46:44.810Z,30.47
2022-12-06T20:49:11.546Z,30.63
2022-12-06T20:51:38.121Z,30.90
2022-12-06T20:54:06.944Z,34.87
2022-12-06T20:56:37.218Z,30.67
2022-12-06T20:59:05.032Z,25.00
2022-12-06T21:01:34.683Z,33.93
2022-12-06T21:04:01.404Z,28.40
2022-12-06T21:06:28.074Z,32.03
2022-12-06T21:08:54.968Z,28.63
2022-12-06T21:11:24.438Z,24.57
2022-12-06T21:13:55.467Z,23.40
2022-12-06T21:16:26.172Z,29.10
2022-12-06T21:18:59.188Z,26.37
2022-12-06T21:21:31.030Z,35.07
2022-12-06T21:24:05.953Z,30.23
2022-12-06T21:26:32.918Z,29.97
2022-12-06T21:28:59.767Z,35.23
2022-12-06T21:31:28.883Z,32.17
2022-12-06T21:33:56.224Z,32.97
2022-12-06T21:36:23.447Z,35.03
2022-12-06T21:38:50.167Z,36.00
2022-12-06T21:41:17.193Z,29.87
2022-12-06T21:43:44.351Z,27.57
2022-12-06T21:46:17.031Z,29.53
2022-12-06T21:48:44.355Z,38.07
2022-12-06T21:51:12.559Z,31.67
2022-12-06T21:53:39.382Z,27.70
2022-12-06T21:56:11.565Z,24.27
2022-12-06T21:58:38.228Z,32.70
2022-12-06T22:01:05.827Z,27.97
2022-12-06T22:03:32.575Z,33.37
2022-12-06T22:06:02.825Z,30.63
2022-12-06T22:08:29.445Z,33.30
2022-12-06T22:10:56.055Z,41.00
2022-12-06T22:13:27.652Z,25.07
2022-12-06T22:15:54.396Z,22.77
2022-12-06T22:18:21.028Z,27.73
2022-12-06T22:20:57.306Z,26.40
2022-12-06T22:23:23.943Z,24.20
2022-12-06T22:25:50.539Z,26.23
2022-12-06T22:28:17.564Z,27.83
2022-12-06T22:30:44.241Z,22.20
2022-12-06T22:33:10.973Z,26.20
2022-12-06T22:35:37.639Z,29.07
2022-12-06T22:38:04.210Z,26.33
2022-12-06T22:40:30.836Z,28.30
2022-12-06T22:42:57.485Z,25.63
2022-12-06T22:45:24.062Z,26.37
2022-12-06T22:47:50.825Z,28.33
2022-12-06T22:50:17.652Z,32.00
2022-12-06T22:52:44.238Z,32.70
2022-12-06T22:55:10.913Z,25.77
2022-12-06T22:57:37.524Z,29.50
2022-12-06T23:00:06.428Z,26.40
2022-12-06T23:02:33.109Z,21.80
2022-12-06T23:04:59.737Z,27.57
2022-12-06T23:07:26.303Z,30.77
2022-12-06T23:09:52.953Z,31.57
2022-12-06T23:12:19.558Z,26.60
2022-12-06T23:14:46.133Z,33.30
2022-12-06T23:17:12.679Z,26.23
2022-12-06T23:19:39.306Z,28.77
2022-12-06T23:22:05.891Z,27.13
2022-12-06T23:24:32.615Z,28.00
2022-12-06T23:26:59.224Z,23.57
2022-12-06T23:29:25.877Z,27.80
2022-12-06T23:31:52.522Z,36.43
2022-12-06T23:34:22.590Z,25.97
2022-12-06T23:36:49.922Z,33.53
2022-12-06T23:39:16.560Z,33.33
2022-12-06T23:41:43.350Z,27.50
2022-12-06T23:44:11.873Z,26.77
2022-12-06T23:46:40.085Z,28.60
2022-12-06T23:49:08.345Z,26.77
2022-12-06T23:51:37.567Z,27.43
2022-12-06T23:54:07.098Z,28.83
2022-12-06T23:56:36.988Z,26.90
2022-12-06T23:59:05.334Z,25.53
